sensor_id;sensor_type;location;lat;lon;timestamp;P1;durP1;ratioP1;P2;durP2;ratioP2
47824;SDS011;33589;48.242;14.676;2023-06-05T00:02:08;4.38;;;3.38;;
47824;SDS011;33589;48.242;14.676;2023-06-05T00:04:33;4.82;;;3.83;;
47824;SDS011;33589;48.242;14.676;2023-06-05T00:07:01;4.88;;;3.50;;
47824;SDS011;33589;48.242;14.676;2023-06-05T00:09:27;3.97;;;3.67;;
47824;SDS011;33589;48.242;14.676;2023-06-05T00:11:53;5.22;;;3.72;;
47824;SDS011;33589;48.242;14.676;2023-06-05T00:14:18;4.07;;;3.53;;
47824;SDS011;33589;48.242;14.676;2023-06-05T00:16:44;5.20;;;3.95;;
47824;SDS011;33589;48.242;14.676;2023-06-05T00:19:10;4.47;;;3.58;;
47824;SDS011;33589;48.242;14.676;2023-06-05T00:21:36;3.50;;;3.20;;
47824;SDS011;33589;48.242;14.676;2023-06-05T00:24:02;4.32;;;3.90;;
47824;SDS011;33589;48.242;14.676;2023-06-05T00:26:27;4.93;;;3.70;;
47824;SDS011;33589;48.242;14.676;2023-06-05T00:28:54;7.75;;;4.05;;
47824;SDS011;33589;48.242;14.676;2023-06-05T00:31:20;3.95;;;3.50;;
47824;SDS011;33589;48.242;14.676;2023-06-05T00:33:47;4.35;;;3.72;;
47824;SDS011;33589;48.242;14.676;2023-06-05T00:36:17;4.63;;;3.90;;
47824;SDS011;33589;48.242;14.676;2023-06-05T00:38:43;4.00;;;3.40;;
47824;SDS011;33589;48.242;14.676;2023-06-05T00:41:10;5.90;;;3.45;;
47824;SDS011;33589;48.242;14.676;2023-06-05T00:43:35;4.38;;;3.97;;
47824;SDS011;33589;48.242;14.676;2023-06-05T00:46:03;4.38;;;3.65;;
47824;SDS011;33589;48.242;14.676;2023-06-05T00:48:29;5.05;;;3.50;;
47824;SDS011;33589;48.242;14.676;2023-06-05T00:50:56;4.97;;;3.60;;
47824;SDS011;33589;48.242;14.676;2023-06-05T00:53:23;4.18;;;3.58;;
47824;SDS011;33589;48.242;14.676;2023-06-05T00:55:50;5.05;;;3.45;;
47824;SDS011;33589;48.242;14.676;2023-06-05T00:58:16;6.88;;;3.60;;
47824;SDS011;33589;48.242;14.676;2023-06-05T01:00:41;5.18;;;3.78;;
47824;SDS011;33589;48.242;14.676;2023-06-05T01:03:07;6.88;;;3.60;;
47824;SDS011;33589;48.242;14.676;2023-06-05T01:05:33;6.28;;;4.05;;
47824;SDS011;33589;48.242;14.676;2023-06-05T01:08:02;3.92;;;3.40;;
47824;SDS011;33589;48.242;14.676;2023-06-05T01:10:28;4.32;;;3.45;;
47824;SDS011;33589;48.242;14.676;2023-06-05T01:12:58;4.10;;;3.70;;
47824;SDS011;33589;48.242;14.676;2023-06-05T01:15:36;3.67;;;3.38;;
47824;SDS011;33589;48.242;14.676;2023-06-05T01:18:03;4.63;;;3.75;;
47824;SDS011;33589;48.242;14.676;2023-06-05T01:20:33;4.68;;;3.85;;
47824;SDS011;33589;48.242;14.676;2023-06-05T01:22:59;4.13;;;3.50;;
47824;SDS011;33589;48.242;14.676;2023-06-05T01:25:26;5.95;;;3.80;;
47824;SDS011;33589;48.242;14.676;2023-06-05T01:27:55;5.35;;;3.38;;
47824;SDS011;33589;48.242;14.676;2023-06-05T01:30:29;6.20;;;3.80;;
47824;SDS011;33589;48.242;14.676;2023-06-05T01:33:09;11.98;;;3.70;;
47824;SDS011;33589;48.242;14.676;2023-06-05T01:35:47;5.05;;;3.58;;
47824;SDS011;33589;48.242;14.676;2023-06-05T01:38:16;4.32;;;3.67;;
47824;SDS011;33589;48.242;14.676;2023-06-05T01:40:43;4.03;;;3.60;;
47824;SDS011;33589;48.242;14.676;2023-06-05T01:43:10;8.05;;;3.95;;
47824;SDS011;33589;48.242;14.676;2023-06-05T01:45:37;5.13;;;3.70;;
47824;SDS011;33589;48.242;14.676;2023-06-05T01:48:06;4.43;;;3.47;;
47824;SDS011;33589;48.242;14.676;2023-06-05T01:50:36;3.80;;;3.50;;
47824;SDS011;33589;48.242;14.676;2023-06-05T01:53:03;3.60;;;3.30;;
47824;SDS011;33589;48.242;14.676;2023-06-05T01:55:31;5.25;;;4.07;;
47824;SDS011;33589;48.242;14.676;2023-06-05T01:57:56;5.80;;;3.80;;
47824;SDS011;33589;48.242;14.676;2023-06-05T02:00:22;6.60;;;3.85;;
47824;SDS011;33589;48.242;14.676;2023-06-05T02:02:48;4.68;;;3.60;;
47824;SDS011;33589;48.242;14.676;2023-06-05T02:05:15;4.53;;;3.40;;
47824;SDS011;33589;48.242;14.676;2023-06-05T02:07:46;5.55;;;3.63;;
47824;SDS011;33589;48.242;14.676;2023-06-05T02:10:14;6.00;;;3.60;;
47824;SDS011;33589;48.242;14.676;2023-06-05T02:12:40;4.28;;;3.55;;
47824;SDS011;33589;48.242;14.676;2023-06-05T02:15:07;3.72;;;3.38;;
47824;SDS011;33589;48.242;14.676;2023-06-05T02:17:38;5.20;;;3.25;;
47824;SDS011;33589;48.242;14.676;2023-06-05T02:20:04;5.15;;;3.78;;
47824;SDS011;33589;48.242;14.676;2023-06-05T02:22:30;5.45;;;3.80;;
47824;SDS011;33589;48.242;14.676;2023-06-05T02:24:56;8.77;;;3.80;;
47824;SDS011;33589;48.242;14.676;2023-06-05T02:27:22;4.38;;;3.35;;
47824;SDS011;33589;48.242;14.676;2023-06-05T02:29:49;5.60;;;4.00;;
47824;SDS011;33589;48.242;14.676;2023-06-05T02:32:16;4.90;;;3.70;;
47824;SDS011;33589;48.242;14.676;2023-06-05T02:34:41;4.35;;;3.95;;
47824;SDS011;33589;48.242;14.676;2023-06-05T02:37:07;4.85;;;3.55;;
47824;SDS011;33589;48.242;14.676;2023-06-05T02:39:33;7.20;;;4.07;;
47824;SDS011;33589;48.242;14.676;2023-06-05T02:41:59;4.55;;;3.35;;
47824;SDS011;33589;48.242;14.676;2023-06-05T02:44:25;4.28;;;3.55;;
47824;SDS011;33589;48.242;14.676;2023-06-05T02:46:51;6.85;;;4.35;;
47824;SDS011;33589;48.242;14.676;2023-06-05T02:49:17;6.43;;;3.75;;
47824;SDS011;33589;48.242;14.676;2023-06-05T02:51:42;4.03;;;3.30;;
47824;SDS011;33589;48.242;14.676;2023-06-05T02:54:09;4.35;;;3.63;;
47824;SDS011;33589;48.242;14.676;2023-06-05T02:56:35;5.10;;;4.05;;
47824;SDS011;33589;48.242;14.676;2023-06-05T02:59:01;5.25;;;3.60;;
47824;SDS011;33589;48.242;14.676;2023-06-05T03:01:31;4.95;;;3.80;;
47824;SDS011;33589;48.242;14.676;2023-06-05T03:04:03;4.55;;;3.95;;
47824;SDS011;33589;48.242;14.676;2023-06-05T03:06:31;6.20;;;3.85;;
47824;SDS011;33589;48.242;14.676;2023-06-05T03:09:02;5.75;;;3.92;;
47824;SDS011;33589;48.242;14.676;2023-06-05T03:11:29;4.10;;;3.70;;
47824;SDS011;33589;48.242;14.676;2023-06-05T03:13:55;4.35;;;3.50;;
47824;SDS011;33589;48.242;14.676;2023-06-05T03:16:22;4.93;;;3.78;;
47824;SDS011;33589;48.242;14.676;2023-06-05T03:18:52;3.85;;;3.33;;
47824;SDS011;33589;48.242;14.676;2023-06-05T03:21:19;5.95;;;3.83;;
47824;SDS011;33589;48.242;14.676;2023-06-05T03:23:45;5.85;;;3.97;;
47824;SDS011;33589;48.242;14.676;2023-06-05T03:26:12;4.97;;;3.90;;
47824;SDS011;33589;48.242;14.676;2023-06-05T03:28:38;6.15;;;3.85;;
47824;SDS011;33589;48.242;14.676;2023-06-05T03:31:07;6.35;;;3.90;;
47824;SDS011;33589;48.242;14.676;2023-06-05T03:33:37;4.55;;;3.80;;
47824;SDS011;33589;48.242;14.676;2023-06-05T03:36:03;5.05;;;3.80;;
47824;SDS011;33589;48.242;14.676;2023-06-05T03:38:31;6.18;;;3.83;;
47824;SDS011;33589;48.242;14.676;2023-06-05T03:40:56;4.55;;;3.88;;
47824;SDS011;33589;48.242;14.676;2023-06-05T03:43:22;8.23;;;3.80;;
47824;SDS011;33589;48.242;14.676;2023-06-05T03:45:50;4.95;;;3.80;;
47824;SDS011;33589;48.242;14.676;2023-06-05T03:48:18;6.57;;;4.30;;
47824;SDS011;33589;48.242;14.676;2023-06-05T03:50:47;5.25;;;3.80;;
47824;SDS011;33589;48.242;14.676;2023-06-05T03:53:16;6.30;;;4.15;;
47824;SDS011;33589;48.242;14.676;2023-06-05T03:55:44;5.20;;;4.28;;
47824;SDS011;33589;48.242;14.676;2023-06-05T03:58:18;4.38;;;3.75;;
47824;SDS011;33589;48.242;14.676;2023-06-05T04:00:47;4.72;;;3.97;;
47824;SDS011;33589;48.242;14.676;2023-06-05T04:03:17;7.00;;;4.32;;
47824;SDS011;33589;48.242;14.676;2023-06-05T04:05:43;6.40;;;4.40;;
47824;SDS011;33589;48.242;14.676;2023-06-05T04:08:10;5.32;;;3.95;;
47824;SDS011;33589;48.242;14.676;2023-06-05T04:10:36;6.82;;;4.00;;
47824;SDS011;33589;48.242;14.676;2023-06-05T04:13:03;5.07;;;4.30;;
47824;SDS011;33589;48.242;14.676;2023-06-05T04:15:30;6.22;;;4.30;;
47824;SDS011;33589;48.242;14.676;2023-06-05T04:17:56;6.07;;;4.40;;
47824;SDS011;33589;48.242;14.676;2023-06-05T04:20:22;5.40;;;4.00;;
47824;SDS011;33589;48.242;14.676;2023-06-05T04:22:48;5.18;;;4.00;;
47824;SDS011;33589;48.242;14.676;2023-06-05T04:25:14;6.28;;;4.15;;
47824;SDS011;33589;48.242;14.676;2023-06-05T04:27:42;4.20;;;3.80;;
47824;SDS011;33589;48.242;14.676;2023-06-05T04:30:10;5.97;;;4.20;;
47824;SDS011;33589;48.242;14.676;2023-06-05T04:32:38;5.85;;;4.28;;
47824;SDS011;33589;48.242;14.676;2023-06-05T04:35:05;6.47;;;4.30;;
47824;SDS011;33589;48.242;14.676;2023-06-05T04:37:31;6.75;;;4.60;;
47824;SDS011;33589;48.242;14.676;2023-06-05T04:39:57;4.90;;;4.38;;
47824;SDS011;33589;48.242;14.676;2023-06-05T04:42:24;10.63;;;4.40;;
47824;SDS011;33589;48.242;14.676;2023-06-05T04:44:56;4.88;;;4.20;;
47824;SDS011;33589;48.242;14.676;2023-06-05T04:47:24;7.95;;;4.60;;
47824;SDS011;33589;48.242;14.676;2023-06-05T04:49:51;5.45;;;4.15;;
47824;SDS011;33589;48.242;14.676;2023-06-05T04:52:19;7.70;;;4.55;;
47824;SDS011;33589;48.242;14.676;2023-06-05T04:54:47;6.20;;;4.32;;
47824;SDS011;33589;48.242;14.676;2023-06-05T04:57:13;5.55;;;4.43;;
47824;SDS011;33589;48.242;14.676;2023-06-05T04:59:42;6.13;;;4.03;;
47824;SDS011;33589;48.242;14.676;2023-06-05T05:02:11;8.85;;;4.20;;
47824;SDS011;33589;48.242;14.676;2023-06-05T05:04:37;8.95;;;4.82;;
47824;SDS011;33589;48.242;14.676;2023-06-05T05:07:03;5.63;;;4.40;;
47824;SDS011;33589;48.242;14.676;2023-06-05T05:09:30;7.20;;;4.75;;
47824;SDS011;33589;48.242;14.676;2023-06-05T05:11:56;5.15;;;4.57;;
47824;SDS011;33589;48.242;14.676;2023-06-05T05:14:26;6.60;;;4.53;;
47824;SDS011;33589;48.242;14.676;2023-06-05T05:16:55;7.00;;;4.53;;
47824;SDS011;33589;48.242;14.676;2023-06-05T05:19:22;7.03;;;4.25;;
47824;SDS011;33589;48.242;14.676;2023-06-05T05:21:47;5.00;;;4.50;;
47824;SDS011;33589;48.242;14.676;2023-06-05T05:24:13;8.23;;;4.57;;
47824;SDS011;33589;48.242;14.676;2023-06-05T05:26:41;4.85;;;4.32;;
47824;SDS011;33589;48.242;14.676;2023-06-05T05:29:07;5.50;;;4.32;;
47824;SDS011;33589;48.242;14.676;2023-06-05T05:31:34;9.80;;;4.78;;
47824;SDS011;33589;48.242;14.676;2023-06-05T05:34:00;4.65;;;4.15;;
47824;SDS011;33589;48.242;14.676;2023-06-05T05:36:26;7.82;;;4.50;;
47824;SDS011;33589;48.242;14.676;2023-06-05T05:38:52;6.82;;;4.10;;
47824;SDS011;33589;48.242;14.676;2023-06-05T05:41:19;7.85;;;4.10;;
47824;SDS011;33589;48.242;14.676;2023-06-05T05:43:46;6.32;;;3.88;;
47824;SDS011;33589;48.242;14.676;2023-06-05T05:46:12;6.10;;;4.10;;
47824;SDS011;33589;48.242;14.676;2023-06-05T05:48:38;7.60;;;5.50;;
47824;SDS011;33589;48.242;14.676;2023-06-05T05:51:06;6.05;;;4.93;;
47824;SDS011;33589;48.242;14.676;2023-06-05T05:53:32;4.50;;;3.80;;
47824;SDS011;33589;48.242;14.676;2023-06-05T05:55:59;4.97;;;3.47;;
47824;SDS011;33589;48.242;14.676;2023-06-05T05:58:25;7.32;;;3.58;;
47824;SDS011;33589;48.242;14.676;2023-06-05T06:00:51;4.75;;;3.80;;
47824;SDS011;33589;48.242;14.676;2023-06-05T06:03:16;9.13;;;3.58;;
47824;SDS011;33589;48.242;14.676;2023-06-05T06:05:43;6.65;;;3.55;;
47824;SDS011;33589;48.242;14.676;2023-06-05T06:08:10;4.85;;;3.65;;
47824;SDS011;33589;48.242;14.676;2023-06-05T06:10:36;4.45;;;3.20;;
47824;SDS011;33589;48.242;14.676;2023-06-05T06:13:02;5.30;;;3.08;;
47824;SDS011;33589;48.242;14.676;2023-06-05T06:15:29;6.60;;;3.17;;
47824;SDS011;33589;48.242;14.676;2023-06-05T06:17:57;3.97;;;3.20;;
47824;SDS011;33589;48.242;14.676;2023-06-05T06:20:27;3.20;;;2.90;;
47824;SDS011;33589;48.242;14.676;2023-06-05T06:22:53;3.63;;;3.05;;
47824;SDS011;33589;48.242;14.676;2023-06-05T06:25:19;2.90;;;2.70;;
47824;SDS011;33589;48.242;14.676;2023-06-05T06:27:46;4.00;;;2.97;;
47824;SDS011;33589;48.242;14.676;2023-06-05T06:30:13;4.68;;;3.00;;
47824;SDS011;33589;48.242;14.676;2023-06-05T06:32:39;3.10;;;2.80;;
47824;SDS011;33589;48.242;14.676;2023-06-05T06:35:06;3.83;;;3.08;;
47824;SDS011;33589;48.242;14.676;2023-06-05T06:37:32;4.82;;;3.08;;
47824;SDS011;33589;48.242;14.676;2023-06-05T06:39:58;4.80;;;3.30;;
47824;SDS011;33589;48.242;14.676;2023-06-05T06:42:23;4.28;;;3.13;;
47824;SDS011;33589;48.242;14.676;2023-06-05T06:45:08;3.90;;;3.40;;
47824;SDS011;33589;48.242;14.676;2023-06-05T06:47:34;6.57;;;3.15;;
47824;SDS011;33589;48.242;14.676;2023-06-05T06:50:00;3.13;;;2.83;;
47824;SDS011;33589;48.242;14.676;2023-06-05T06:52:26;3.33;;;2.92;;
47824;SDS011;33589;48.242;14.676;2023-06-05T06:54:52;6.18;;;3.40;;
47824;SDS011;33589;48.242;14.676;2023-06-05T06:57:17;3.72;;;3.38;;
47824;SDS011;33589;48.242;14.676;2023-06-05T06:59:43;3.70;;;3.17;;
47824;SDS011;33589;48.242;14.676;2023-06-05T07:04:43;6.55;;;3.13;;
47824;SDS011;33589;48.242;14.676;2023-06-05T07:07:13;3.90;;;3.10;;
47824;SDS011;33589;48.242;14.676;2023-06-05T07:09:43;4.63;;;3.50;;
47824;SDS011;33589;48.242;14.676;2023-06-05T07:12:11;4.80;;;3.30;;
47824;SDS011;33589;48.242;14.676;2023-06-05T07:14:38;4.97;;;3.40;;
47824;SDS011;33589;48.242;14.676;2023-06-05T07:17:04;3.30;;;3.00;;
47824;SDS011;33589;48.242;14.676;2023-06-05T07:19:31;3.50;;;3.20;;
47824;SDS011;33589;48.242;14.676;2023-06-05T07:21:58;4.15;;;3.20;;
47824;SDS011;33589;48.242;14.676;2023-06-05T07:24:25;3.70;;;3.13;;
47824;SDS011;33589;48.242;14.676;2023-06-05T07:26:56;4.53;;;3.20;;
47824;SDS011;33589;48.242;14.676;2023-06-05T07:29:24;5.05;;;3.70;;
47824;SDS011;33589;48.242;14.676;2023-06-05T07:31:50;4.63;;;3.13;;
47824;SDS011;33589;48.242;14.676;2023-06-05T07:34:17;5.40;;;3.00;;
47824;SDS011;33589;48.242;14.676;2023-06-05T07:36:46;5.75;;;3.83;;
47824;SDS011;33589;48.242;14.676;2023-06-05T07:39:13;4.57;;;3.75;;
47824;SDS011;33589;48.242;14.676;2023-06-05T07:41:40;5.00;;;3.63;;
47824;SDS011;33589;48.242;14.676;2023-06-05T07:44:07;4.50;;;3.60;;
47824;SDS011;33589;48.242;14.676;2023-06-05T07:46:34;7.15;;;3.35;;
47824;SDS011;33589;48.242;14.676;2023-06-05T07:48:59;3.40;;;3.10;;
47824;SDS011;33589;48.242;14.676;2023-06-05T07:51:25;6.03;;;3.90;;
47824;SDS011;33589;48.242;14.676;2023-06-05T07:53:51;5.70;;;4.20;;
47824;SDS011;33589;48.242;14.676;2023-06-05T07:56:17;4.00;;;3.63;;
47824;SDS011;33589;48.242;14.676;2023-06-05T07:58:42;6.97;;;3.90;;
47824;SDS011;33589;48.242;14.676;2023-06-05T08:01:08;9.05;;;4.30;;
47824;SDS011;33589;48.242;14.676;2023-06-05T08:03:35;5.35;;;4.43;;
47824;SDS011;33589;48.242;14.676;2023-06-05T08:06:00;4.75;;;4.13;;
47824;SDS011;33589;48.242;14.676;2023-06-05T08:08:27;5.78;;;4.30;;
47824;SDS011;33589;48.242;14.676;2023-06-05T08:10:52;6.80;;;4.43;;
47824;SDS011;33589;48.242;14.676;2023-06-05T08:13:18;5.00;;;4.40;;
47824;SDS011;33589;48.242;14.676;2023-06-05T08:15:44;4.63;;;4.22;;
47824;SDS011;33589;48.242;14.676;2023-06-05T08:18:10;7.88;;;5.30;;
47824;SDS011;33589;48.242;14.676;2023-06-05T08:20:35;4.93;;;4.50;;
47824;SDS011;33589;48.242;14.676;2023-06-05T08:23:01;6.95;;;4.72;;
47824;SDS011;33589;48.242;14.676;2023-06-05T08:25:26;7.55;;;4.70;;
47824;SDS011;33589;48.242;14.676;2023-06-05T08:27:52;5.20;;;4.43;;
47824;SDS011;33589;48.242;14.676;2023-06-05T08:30:18;5.10;;;4.60;;
47824;SDS011;33589;48.242;14.676;2023-06-05T08:32:44;6.22;;;4.70;;
47824;SDS011;33589;48.242;14.676;2023-06-05T08:35:10;6.80;;;5.35;;
47824;SDS011;33589;48.242;14.676;2023-06-05T08:37:37;7.43;;;5.05;;
47824;SDS011;33589;48.242;14.676;2023-06-05T08:40:04;6.03;;;5.43;;
47824;SDS011;33589;48.242;14.676;2023-06-05T08:42:37;6.03;;;5.38;;
47824;SDS011;33589;48.242;14.676;2023-06-05T08:45:07;6.78;;;4.90;;
47824;SDS011;33589;48.242;14.676;2023-06-05T08:47:35;7.53;;;5.13;;
47824;SDS011;33589;48.242;14.676;2023-06-05T08:50:06;6.80;;;5.22;;
47824;SDS011;33589;48.242;14.676;2023-06-05T08:52:33;6.72;;;4.63;;
47824;SDS011;33589;48.242;14.676;2023-06-05T08:55:04;7.63;;;5.95;;
47824;SDS011;33589;48.242;14.676;2023-06-05T08:57:33;6.30;;;5.32;;
47824;SDS011;33589;48.242;14.676;2023-06-05T09:00:02;7.05;;;4.65;;
47824;SDS011;33589;48.242;14.676;2023-06-05T09:02:33;6.85;;;5.22;;
47824;SDS011;33589;48.242;14.676;2023-06-05T09:04:58;5.97;;;5.47;;
47824;SDS011;33589;48.242;14.676;2023-06-05T09:07:27;7.10;;;5.65;;
47824;SDS011;33589;48.242;14.676;2023-06-05T09:09:54;8.38;;;5.60;;
47824;SDS011;33589;48.242;14.676;2023-06-05T09:12:20;11.50;;;5.60;;
47824;SDS011;33589;48.242;14.676;2023-06-05T09:14:45;8.25;;;6.22;;
47824;SDS011;33589;48.242;14.676;2023-06-05T09:17:12;7.78;;;5.80;;
47824;SDS011;33589;48.242;14.676;2023-06-05T09:19:39;8.30;;;5.82;;
47824;SDS011;33589;48.242;14.676;2023-06-05T09:22:09;9.90;;;5.90;;
47824;SDS011;33589;48.242;14.676;2023-06-05T09:24:39;8.63;;;5.90;;
47824;SDS011;33589;48.242;14.676;2023-06-05T09:27:06;6.70;;;5.80;;
47824;SDS011;33589;48.242;14.676;2023-06-05T09:29:34;7.90;;;5.88;;
47824;SDS011;33589;48.242;14.676;2023-06-05T09:32:02;7.68;;;5.93;;
47824;SDS011;33589;48.242;14.676;2023-06-05T09:34:36;6.28;;;5.68;;
47824;SDS011;33589;48.242;14.676;2023-06-05T09:37:03;7.57;;;5.75;;
47824;SDS011;33589;48.242;14.676;2023-06-05T09:39:31;8.68;;;5.90;;
47824;SDS011;33589;48.242;14.676;2023-06-05T09:41:58;6.07;;;5.40;;
47824;SDS011;33589;48.242;14.676;2023-06-05T09:44:25;9.10;;;5.10;;
47824;SDS011;33589;48.242;14.676;2023-06-05T09:52:00;11.02;;;5.82;;
47824;SDS011;33589;48.242;14.676;2023-06-05T09:54:28;7.40;;;6.50;;
47824;SDS011;33589;48.242;14.676;2023-06-05T09:57:02;6.78;;;6.07;;
47824;SDS011;33589;48.242;14.676;2023-06-05T09:59:33;9.20;;;6.32;;
47824;SDS011;33589;48.242;14.676;2023-06-05T10:02:04;6.50;;;5.55;;
47824;SDS011;33589;48.242;14.676;2023-06-05T10:07:29;7.28;;;5.97;;
47824;SDS011;33589;48.242;14.676;2023-06-05T10:09:56;8.77;;;5.88;;
47824;SDS011;33589;48.242;14.676;2023-06-05T10:12:23;7.35;;;5.85;;
47824;SDS011;33589;48.242;14.676;2023-06-05T10:14:52;10.13;;;6.05;;
47824;SDS011;33589;48.242;14.676;2023-06-05T10:17:22;7.38;;;6.20;;
47824;SDS011;33589;48.242;14.676;2023-06-05T10:19:48;8.13;;;5.68;;
47824;SDS011;33589;48.242;14.676;2023-06-05T10:22:16;9.90;;;6.13;;
47824;SDS011;33589;48.242;14.676;2023-06-05T10:24:44;7.00;;;5.65;;
47824;SDS011;33589;48.242;14.676;2023-06-05T10:35:50;7.88;;;5.93;;
47824;SDS011;33589;48.242;14.676;2023-06-05T10:38:34;7.13;;;5.65;;
47824;SDS011;33589;48.242;14.676;2023-06-05T10:41:02;7.07;;;5.72;;
47824;SDS011;33589;48.242;14.676;2023-06-05T10:46:00;7.28;;;5.20;;
47824;SDS011;33589;48.242;14.676;2023-06-05T10:51:44;7.75;;;5.30;;
47824;SDS011;33589;48.242;14.676;2023-06-05T10:54:14;8.55;;;5.05;;
47824;SDS011;33589;48.242;14.676;2023-06-05T10:57:03;8.00;;;5.38;;
47824;SDS011;33589;48.242;14.676;2023-06-05T11:07:22;8.20;;;5.43;;
47824;SDS011;33589;48.242;14.676;2023-06-05T11:17:47;8.00;;;5.00;;
47824;SDS011;33589;48.242;14.676;2023-06-05T11:30:15;8.30;;;4.85;;
47824;SDS011;33589;48.242;14.676;2023-06-05T11:32:42;8.18;;;5.10;;
47824;SDS011;33589;48.242;14.676;2023-06-05T11:35:09;8.13;;;5.18;;
47824;SDS011;33589;48.242;14.676;2023-06-05T11:37:35;11.05;;;6.10;;
47824;SDS011;33589;48.242;14.676;2023-06-05T11:40:07;6.70;;;5.20;;
47824;SDS011;33589;48.242;14.676;2023-06-05T11:42:36;7.57;;;5.55;;
47824;SDS011;33589;48.242;14.676;2023-06-05T11:45:12;5.43;;;4.93;;
47824;SDS011;33589;48.242;14.676;2023-06-05T11:47:38;7.75;;;5.47;;
47824;SDS011;33589;48.242;14.676;2023-06-05T11:50:07;8.57;;;5.20;;
47824;SDS011;33589;48.242;14.676;2023-06-05T11:52:37;6.05;;;4.80;;
47824;SDS011;33589;48.242;14.676;2023-06-05T11:55:13;8.48;;;5.25;;
47824;SDS011;33589;48.242;14.676;2023-06-05T11:57:41;6.68;;;4.38;;
47824;SDS011;33589;48.242;14.676;2023-06-05T12:00:08;8.23;;;4.75;;
47824;SDS011;33589;48.242;14.676;2023-06-05T12:02:37;7.20;;;5.05;;
47824;SDS011;33589;48.242;14.676;2023-06-05T12:05:06;5.78;;;4.80;;
47824;SDS011;33589;48.242;14.676;2023-06-05T12:07:35;5.63;;;5.00;;
47824;SDS011;33589;48.242;14.676;2023-06-05T12:10:11;6.25;;;5.18;;
47824;SDS011;33589;48.242;14.676;2023-06-05T12:12:52;9.73;;;5.00;;
47824;SDS011;33589;48.242;14.676;2023-06-05T12:15:19;10.18;;;5.20;;
47824;SDS011;33589;48.242;14.676;2023-06-05T12:17:49;9.38;;;5.18;;
47824;SDS011;33589;48.242;14.676;2023-06-05T12:20:16;7.95;;;5.07;;
47824;SDS011;33589;48.242;14.676;2023-06-05T12:22:42;11.05;;;4.70;;
47824;SDS011;33589;48.242;14.676;2023-06-05T12:25:15;7.97;;;4.80;;
47824;SDS011;33589;48.242;14.676;2023-06-05T12:27:41;9.82;;;5.05;;
47824;SDS011;33589;48.242;14.676;2023-06-05T12:30:07;8.23;;;4.82;;
47824;SDS011;33589;48.242;14.676;2023-06-05T12:32:34;6.18;;;4.90;;
47824;SDS011;33589;48.242;14.676;2023-06-05T12:35:00;9.05;;;5.22;;
47824;SDS011;33589;48.242;14.676;2023-06-05T12:37:29;12.07;;;5.65;;
47824;SDS011;33589;48.242;14.676;2023-06-05T12:40:14;13.30;;;5.53;;
47824;SDS011;33589;48.242;14.676;2023-06-05T12:42:42;17.73;;;5.43;;
47824;SDS011;33589;48.242;14.676;2023-06-05T12:45:08;13.27;;;5.03;;
47824;SDS011;33589;48.242;14.676;2023-06-05T12:47:36;9.52;;;4.93;;
47824;SDS011;33589;48.242;14.676;2023-06-05T12:50:03;29.20;;;6.93;;
47824;SDS011;33589;48.242;14.676;2023-06-05T12:52:30;30.60;;;6.05;;
47824;SDS011;33589;48.242;14.676;2023-06-05T12:54:56;16.58;;;5.45;;
47824;SDS011;33589;48.242;14.676;2023-06-05T12:57:25;120.30;;;14.35;;
47824;SDS011;33589;48.242;14.676;2023-06-05T12:59:54;16.27;;;5.18;;
47824;SDS011;33589;48.242;14.676;2023-06-05T13:02:20;6.85;;;4.60;;
47824;SDS011;33589;48.242;14.676;2023-06-05T13:04:46;5.10;;;4.60;;
47824;SDS011;33589;48.242;14.676;2023-06-05T13:07:12;34.25;;;6.93;;
47824;SDS011;33589;48.242;14.676;2023-06-05T13:09:38;15.23;;;5.00;;
47824;SDS011;33589;48.242;14.676;2023-06-05T13:12:04;8.85;;;4.53;;
47824;SDS011;33589;48.242;14.676;2023-06-05T13:14:32;5.93;;;4.78;;
47824;SDS011;33589;48.242;14.676;2023-06-05T13:16:59;9.23;;;4.53;;
47824;SDS011;33589;48.242;14.676;2023-06-05T13:19:25;5.53;;;4.53;;
47824;SDS011;33589;48.242;14.676;2023-06-05T13:21:51;5.18;;;4.68;;
47824;SDS011;33589;48.242;14.676;2023-06-05T13:24:17;7.95;;;4.70;;
47824;SDS011;33589;48.242;14.676;2023-06-05T13:26:43;8.07;;;4.53;;
47824;SDS011;33589;48.242;14.676;2023-06-05T13:29:10;5.32;;;4.45;;
47824;SDS011;33589;48.242;14.676;2023-06-05T13:31:36;6.65;;;4.22;;
47824;SDS011;33589;48.242;14.676;2023-06-05T13:34:02;7.45;;;4.28;;
47824;SDS011;33589;48.242;14.676;2023-06-05T13:36:28;8.95;;;4.45;;
47824;SDS011;33589;48.242;14.676;2023-06-05T13:38:53;7.20;;;4.78;;
47824;SDS011;33589;48.242;14.676;2023-06-05T13:41:19;8.20;;;4.50;;
47824;SDS011;33589;48.242;14.676;2023-06-05T13:43:46;16.80;;;5.38;;
47824;SDS011;33589;48.242;14.676;2023-06-05T13:46:11;11.43;;;4.82;;
47824;SDS011;33589;48.242;14.676;2023-06-05T13:48:37;6.55;;;4.68;;
47824;SDS011;33589;48.242;14.676;2023-06-05T13:51:03;8.32;;;4.50;;
47824;SDS011;33589;48.242;14.676;2023-06-05T13:53:30;5.60;;;4.25;;
47824;SDS011;33589;48.242;14.676;2023-06-05T13:56:04;5.75;;;4.50;;
47824;SDS011;33589;48.242;14.676;2023-06-05T13:58:30;6.80;;;4.22;;
47824;SDS011;33589;48.242;14.676;2023-06-05T14:00:57;4.90;;;3.90;;
47824;SDS011;33589;48.242;14.676;2023-06-05T14:03:26;5.20;;;4.25;;
47824;SDS011;33589;48.242;14.676;2023-06-05T14:05:52;5.97;;;4.60;;
47824;SDS011;33589;48.242;14.676;2023-06-05T14:08:18;5.47;;;4.30;;
47824;SDS011;33589;48.242;14.676;2023-06-05T14:10:44;6.60;;;4.13;;
47824;SDS011;33589;48.242;14.676;2023-06-05T14:13:10;6.35;;;4.53;;
47824;SDS011;33589;48.242;14.676;2023-06-05T14:15:37;6.20;;;4.57;;
47824;SDS011;33589;48.242;14.676;2023-06-05T14:18:03;6.93;;;4.13;;
47824;SDS011;33589;48.242;14.676;2023-06-05T14:20:33;6.00;;;4.28;;
47824;SDS011;33589;48.242;14.676;2023-06-05T14:22:59;4.72;;;4.25;;
47824;SDS011;33589;48.242;14.676;2023-06-05T14:25:26;5.25;;;4.57;;
47824;SDS011;33589;48.242;14.676;2023-06-05T14:27:56;6.82;;;4.13;;
47824;SDS011;33589;48.242;14.676;2023-06-05T14:30:23;4.90;;;3.92;;
47824;SDS011;33589;48.242;14.676;2023-06-05T14:32:49;6.82;;;4.25;;
47824;SDS011;33589;48.242;14.676;2023-06-05T14:35:15;4.53;;;4.13;;
47824;SDS011;33589;48.242;14.676;2023-06-05T14:37:44;4.57;;;4.03;;
47824;SDS011;33589;48.242;14.676;2023-06-05T14:40:11;7.97;;;4.38;;
47824;SDS011;33589;48.242;14.676;2023-06-05T14:42:37;4.43;;;3.97;;
47824;SDS011;33589;48.242;14.676;2023-06-05T14:45:03;5.13;;;4.13;;
47824;SDS011;33589;48.242;14.676;2023-06-05T14:47:30;6.82;;;4.30;;
47824;SDS011;33589;48.242;14.676;2023-06-05T14:49:56;6.57;;;4.43;;
47824;SDS011;33589;48.242;14.676;2023-06-05T14:52:21;6.32;;;4.30;;
47824;SDS011;33589;48.242;14.676;2023-06-05T14:54:47;13.93;;;5.05;;
47824;SDS011;33589;48.242;14.676;2023-06-05T14:57:13;5.43;;;4.25;;
47824;SDS011;33589;48.242;14.676;2023-06-05T14:59:38;5.75;;;3.85;;
47824;SDS011;33589;48.242;14.676;2023-06-05T15:02:05;5.47;;;3.97;;
47824;SDS011;33589;48.242;14.676;2023-06-05T15:04:31;5.68;;;4.20;;
47824;SDS011;33589;48.242;14.676;2023-06-05T15:06:58;4.65;;;4.25;;
47824;SDS011;33589;48.242;14.676;2023-06-05T15:09:24;5.20;;;3.85;;
47824;SDS011;33589;48.242;14.676;2023-06-05T15:11:50;6.85;;;4.32;;
47824;SDS011;33589;48.242;14.676;2023-06-05T15:14:16;4.45;;;3.92;;
47824;SDS011;33589;48.242;14.676;2023-06-05T15:16:42;5.53;;;4.13;;
47824;SDS011;33589;48.242;14.676;2023-06-05T15:19:08;4.55;;;3.92;;
47824;SDS011;33589;48.242;14.676;2023-06-05T15:21:34;6.25;;;3.90;;
47824;SDS011;33589;48.242;14.676;2023-06-05T15:24:01;5.28;;;4.10;;
47824;SDS011;33589;48.242;14.676;2023-06-05T15:26:27;5.88;;;4.40;;